sensor_id;sensor_type;location;lat;lon;timestamp;P1;durP1;ratioP1;P2;durP2;ratioP2
6376;SDS011;3221;48.858;10.128;2023-12-28T00:02:14;3.70;;;2.00;;
6376;SDS011;3221;48.858;10.128;2023-12-28T00:04:42;2.30;;;1.90;;
6376;SDS011;3221;48.858;10.128;2023-12-28T00:07:08;2.43;;;1.90;;
6376;SDS011;3221;48.858;10.128;2023-12-28T00:09:35;3.40;;;2.10;;
6376;SDS011;3221;48.858;10.128;2023-12-28T00:12:02;3.93;;;1.90;;
6376;SDS011;3221;48.858;10.128;2023-12-28T00:14:30;3.20;;;2.10;;
6376;SDS011;3221;48.858;10.128;2023-12-28T00:16:57;3.17;;;2.10;;
6376;SDS011;3221;48.858;10.128;2023-12-28T00:19:24;2.47;;;1.87;;
6376;SDS011;3221;48.858;10.128;2023-12-28T00:21:51;1.77;;;1.67;;
6376;SDS011;3221;48.858;10.128;2023-12-28T00:24:19;2.23;;;2.03;;
6376;SDS011;3221;48.858;10.128;2023-12-28T00:26:47;2.80;;;2.17;;
6376;SDS011;3221;48.858;10.128;2023-12-28T00:29:14;2.40;;;2.10;;
6376;SDS011;3221;48.858;10.128;2023-12-28T00:31:41;2.60;;;2.10;;
6376;SDS011;3221;48.858;10.128;2023-12-28T00:34:08;2.10;;;1.90;;
6376;SDS011;3221;48.858;10.128;2023-12-28T00:36:35;2.03;;;1.83;;
6376;SDS011;3221;48.858;10.128;2023-12-28T00:39:02;1.87;;;1.70;;
6376;SDS011;3221;48.858;10.128;2023-12-28T00:41:29;2.30;;;1.93;;
6376;SDS011;3221;48.858;10.128;2023-12-28T00:43:56;2.13;;;1.93;;
6376;SDS011;3221;48.858;10.128;2023-12-28T00:46:23;2.60;;;1.70;;
6376;SDS011;3221;48.858;10.128;2023-12-28T00:48:50;4.37;;;2.80;;
6376;SDS011;3221;48.858;10.128;2023-12-28T00:51:17;3.47;;;2.47;;
6376;SDS011;3221;48.858;10.128;2023-12-28T00:53:44;3.40;;;2.60;;
6376;SDS011;3221;48.858;10.128;2023-12-28T00:56:11;3.53;;;2.70;;
6376;SDS011;3221;48.858;10.128;2023-12-28T00:58:41;3.13;;;2.20;;
6376;SDS011;3221;48.858;10.128;2023-12-28T01:01:10;2.47;;;2.00;;
6376;SDS011;3221;48.858;10.128;2023-12-28T01:03:39;2.23;;;2.03;;
6376;SDS011;3221;48.858;10.128;2023-12-28T01:06:06;3.70;;;2.00;;
6376;SDS011;3221;48.858;10.128;2023-12-28T01:08:33;3.60;;;2.60;;
6376;SDS011;3221;48.858;10.128;2023-12-28T01:11:03;2.87;;;2.30;;
6376;SDS011;3221;48.858;10.128;2023-12-28T01:13:30;3.37;;;2.70;;
6376;SDS011;3221;48.858;10.128;2023-12-28T01:15:57;3.53;;;2.17;;
6376;SDS011;3221;48.858;10.128;2023-12-28T01:18:25;2.67;;;2.40;;
6376;SDS011;3221;48.858;10.128;2023-12-28T01:20:52;2.77;;;2.30;;
6376;SDS011;3221;48.858;10.128;2023-12-28T01:23:19;2.40;;;2.03;;
6376;SDS011;3221;48.858;10.128;2023-12-28T01:25:46;3.13;;;2.33;;
6376;SDS011;3221;48.858;10.128;2023-12-28T01:28:13;3.07;;;2.57;;
6376;SDS011;3221;48.858;10.128;2023-12-28T01:30:41;2.67;;;2.10;;
6376;SDS011;3221;48.858;10.128;2023-12-28T01:33:08;3.93;;;2.43;;
6376;SDS011;3221;48.858;10.128;2023-12-28T01:35:35;2.93;;;2.20;;
6376;SDS011;3221;48.858;10.128;2023-12-28T01:38:02;2.47;;;2.10;;
6376;SDS011;3221;48.858;10.128;2023-12-28T01:40:30;2.27;;;2.07;;
6376;SDS011;3221;48.858;10.128;2023-12-28T01:42:57;2.77;;;2.20;;
6376;SDS011;3221;48.858;10.128;2023-12-28T01:45:24;2.50;;;2.30;;
6376;SDS011;3221;48.858;10.128;2023-12-28T01:47:52;2.30;;;1.90;;
6376;SDS011;3221;48.858;10.128;2023-12-28T01:50:20;2.63;;;2.03;;
6376;SDS011;3221;48.858;10.128;2023-12-28T01:52:49;2.57;;;2.33;;
6376;SDS011;3221;48.858;10.128;2023-12-28T01:55:16;2.50;;;2.30;;
6376;SDS011;3221;48.858;10.128;2023-12-28T01:57:45;3.37;;;2.17;;
6376;SDS011;3221;48.858;10.128;2023-12-28T02:00:12;2.33;;;2.13;;
6376;SDS011;3221;48.858;10.128;2023-12-28T02:02:40;3.50;;;2.57;;
6376;SDS011;3221;48.858;10.128;2023-12-28T02:05:09;3.07;;;2.30;;
6376;SDS011;3221;48.858;10.128;2023-12-28T02:07:39;2.17;;;1.90;;
6376;SDS011;3221;48.858;10.128;2023-12-28T02:10:06;3.40;;;2.33;;
6376;SDS011;3221;48.858;10.128;2023-12-28T02:12:34;2.50;;;2.10;;
6376;SDS011;3221;48.858;10.128;2023-12-28T02:15:01;2.93;;;2.50;;
6376;SDS011;3221;48.858;10.128;2023-12-28T02:19:58;2.53;;;2.20;;
6376;SDS011;3221;48.858;10.128;2023-12-28T02:22:26;3.57;;;2.20;;
6376;SDS011;3221;48.858;10.128;2023-12-28T02:25:05;2.37;;;2.17;;
6376;SDS011;3221;48.858;10.128;2023-12-28T02:30:06;3.00;;;2.10;;
6376;SDS011;3221;48.858;10.128;2023-12-28T02:32:47;3.77;;;2.40;;
6376;SDS011;3221;48.858;10.128;2023-12-28T02:37:53;2.53;;;2.30;;
6376;SDS011;3221;48.858;10.128;2023-12-28T02:40:24;2.60;;;2.40;;
6376;SDS011;3221;48.858;10.128;2023-12-28T02:42:52;4.03;;;2.40;;
6376;SDS011;3221;48.858;10.128;2023-12-28T02:45:19;2.97;;;2.30;;
6376;SDS011;3221;48.858;10.128;2023-12-28T02:47:46;3.60;;;2.53;;
6376;SDS011;3221;48.858;10.128;2023-12-28T02:50:13;3.13;;;2.50;;
6376;SDS011;3221;48.858;10.128;2023-12-28T02:52:40;2.43;;;2.23;;
6376;SDS011;3221;48.858;10.128;2023-12-28T02:55:07;3.10;;;2.80;;
6376;SDS011;3221;48.858;10.128;2023-12-28T02:57:34;3.10;;;2.40;;
6376;SDS011;3221;48.858;10.128;2023-12-28T03:00:04;3.13;;;2.33;;
6376;SDS011;3221;48.858;10.128;2023-12-28T03:02:32;3.27;;;2.43;;
6376;SDS011;3221;48.858;10.128;2023-12-28T03:04:59;2.97;;;2.57;;
6376;SDS011;3221;48.858;10.128;2023-12-28T03:07:26;3.03;;;2.53;;
6376;SDS011;3221;48.858;10.128;2023-12-28T03:09:53;3.53;;;2.73;;
6376;SDS011;3221;48.858;10.128;2023-12-28T03:12:20;2.93;;;2.57;;
6376;SDS011;3221;48.858;10.128;2023-12-28T03:14:48;2.77;;;2.57;;
6376;SDS011;3221;48.858;10.128;2023-12-28T03:17:15;3.83;;;2.87;;
6376;SDS011;3221;48.858;10.128;2023-12-28T03:19:41;3.40;;;2.30;;
6376;SDS011;3221;48.858;10.128;2023-12-28T03:22:09;3.47;;;2.80;;
6376;SDS011;3221;48.858;10.128;2023-12-28T03:24:39;3.70;;;2.70;;
6376;SDS011;3221;48.858;10.128;2023-12-28T03:27:06;3.67;;;2.83;;
6376;SDS011;3221;48.858;10.128;2023-12-28T03:29:33;3.93;;;3.10;;
6376;SDS011;3221;48.858;10.128;2023-12-28T03:32:00;3.10;;;2.70;;
6376;SDS011;3221;48.858;10.128;2023-12-28T03:34:27;3.00;;;2.70;;
6376;SDS011;3221;48.858;10.128;2023-12-28T03:36:56;3.53;;;2.80;;
6376;SDS011;3221;48.858;10.128;2023-12-28T03:39:23;2.80;;;2.40;;
6376;SDS011;3221;48.858;10.128;2023-12-28T03:41:50;3.63;;;2.40;;
6376;SDS011;3221;48.858;10.128;2023-12-28T03:44:19;3.97;;;2.47;;
6376;SDS011;3221;48.858;10.128;2023-12-28T03:46:47;2.57;;;2.37;;
6376;SDS011;3221;48.858;10.128;2023-12-28T03:49:18;3.53;;;2.80;;
6376;SDS011;3221;48.858;10.128;2023-12-28T03:51:50;3.93;;;2.70;;
6376;SDS011;3221;48.858;10.128;2023-12-28T03:54:17;3.60;;;2.50;;
6376;SDS011;3221;48.858;10.128;2023-12-28T03:56:45;2.50;;;2.20;;
6376;SDS011;3221;48.858;10.128;2023-12-28T03:59:13;2.80;;;2.50;;
6376;SDS011;3221;48.858;10.128;2023-12-28T04:01:44;3.03;;;2.73;;
6376;SDS011;3221;48.858;10.128;2023-12-28T04:04:11;3.17;;;2.53;;
6376;SDS011;3221;48.858;10.128;2023-12-28T04:06:38;2.60;;;2.40;;
6376;SDS011;3221;48.858;10.128;2023-12-28T04:09:05;3.07;;;2.60;;
6376;SDS011;3221;48.858;10.128;2023-12-28T04:11:32;2.67;;;2.43;;
6376;SDS011;3221;48.858;10.128;2023-12-28T04:14:00;3.23;;;2.60;;
6376;SDS011;3221;48.858;10.128;2023-12-28T04:16:27;3.07;;;2.37;;
6376;SDS011;3221;48.858;10.128;2023-12-28T04:18:54;2.93;;;2.53;;
6376;SDS011;3221;48.858;10.128;2023-12-28T04:21:21;3.00;;;2.70;;
6376;SDS011;3221;48.858;10.128;2023-12-28T04:23:48;3.90;;;2.60;;
6376;SDS011;3221;48.858;10.128;2023-12-28T04:26:17;2.50;;;2.27;;
6376;SDS011;3221;48.858;10.128;2023-12-28T04:28:45;3.77;;;2.30;;
6376;SDS011;3221;48.858;10.128;2023-12-28T04:31:12;2.80;;;2.27;;
6376;SDS011;3221;48.858;10.128;2023-12-28T04:33:40;2.90;;;2.40;;
6376;SDS011;3221;48.858;10.128;2023-12-28T04:36:07;3.30;;;2.50;;
6376;SDS011;3221;48.858;10.128;2023-12-28T04:38:34;2.77;;;2.27;;
6376;SDS011;3221;48.858;10.128;2023-12-28T04:41:02;3.40;;;2.60;;
6376;SDS011;3221;48.858;10.128;2023-12-28T04:43:29;5.57;;;2.60;;
6376;SDS011;3221;48.858;10.128;2023-12-28T04:45:56;2.73;;;2.50;;
6376;SDS011;3221;48.858;10.128;2023-12-28T04:48:25;2.80;;;2.43;;
6376;SDS011;3221;48.858;10.128;2023-12-28T04:50:53;2.27;;;2.07;;
6376;SDS011;3221;48.858;10.128;2023-12-28T04:53:20;3.10;;;2.70;;
6376;SDS011;3221;48.858;10.128;2023-12-28T04:55:47;4.00;;;2.40;;
6376;SDS011;3221;48.858;10.128;2023-12-28T04:58:14;4.30;;;2.70;;
6376;SDS011;3221;48.858;10.128;2023-12-28T05:00:41;3.13;;;2.70;;
6376;SDS011;3221;48.858;10.128;2023-12-28T05:03:09;2.73;;;2.30;;
6376;SDS011;3221;48.858;10.128;2023-12-28T05:05:36;3.57;;;2.10;;
6376;SDS011;3221;48.858;10.128;2023-12-28T05:08:03;3.17;;;2.60;;
6376;SDS011;3221;48.858;10.128;2023-12-28T05:10:30;2.87;;;2.57;;
6376;SDS011;3221;48.858;10.128;2023-12-28T05:12:57;2.87;;;2.27;;
6376;SDS011;3221;48.858;10.128;2023-12-28T05:15:27;3.07;;;2.47;;
6376;SDS011;3221;48.858;10.128;2023-12-28T05:17:55;2.97;;;2.33;;
6376;SDS011;3221;48.858;10.128;2023-12-28T05:20:23;2.40;;;2.20;;
6376;SDS011;3221;48.858;10.128;2023-12-28T05:22:50;2.33;;;2.13;;
6376;SDS011;3221;48.858;10.128;2023-12-28T05:25:17;3.00;;;2.10;;
6376;SDS011;3221;48.858;10.128;2023-12-28T05:27:45;2.30;;;2.10;;
6376;SDS011;3221;48.858;10.128;2023-12-28T05:30:12;2.33;;;2.13;;
6376;SDS011;3221;48.858;10.128;2023-12-28T05:32:40;2.53;;;2.07;;
6376;SDS011;3221;48.858;10.128;2023-12-28T05:35:07;3.37;;;2.20;;
6376;SDS011;3221;48.858;10.128;2023-12-28T05:37:34;2.10;;;1.90;;
6376;SDS011;3221;48.858;10.128;2023-12-28T05:40:01;2.40;;;2.17;;
6376;SDS011;3221;48.858;10.128;2023-12-28T05:42:28;2.20;;;2.00;;
6376;SDS011;3221;48.858;10.128;2023-12-28T05:44:55;2.87;;;2.17;;
6376;SDS011;3221;48.858;10.128;2023-12-28T05:47:22;2.63;;;2.07;;
6376;SDS011;3221;48.858;10.128;2023-12-28T05:49:50;1.83;;;1.73;;
6376;SDS011;3221;48.858;10.128;2023-12-28T05:52:18;1.80;;;1.70;;
6376;SDS011;3221;48.858;10.128;2023-12-28T05:54:46;2.33;;;1.90;;
6376;SDS011;3221;48.858;10.128;2023-12-28T05:57:14;2.27;;;2.03;;
6376;SDS011;3221;48.858;10.128;2023-12-28T05:59:42;2.50;;;2.10;;
6376;SDS011;3221;48.858;10.128;2023-12-28T06:02:09;2.83;;;2.00;;
6376;SDS011;3221;48.858;10.128;2023-12-28T06:04:36;3.27;;;2.27;;
6376;SDS011;3221;48.858;10.128;2023-12-28T06:07:04;2.30;;;2.10;;
6376;SDS011;3221;48.858;10.128;2023-12-28T06:09:31;2.73;;;2.00;;
6376;SDS011;3221;48.858;10.128;2023-12-28T06:11:59;1.83;;;1.63;;
6376;SDS011;3221;48.858;10.128;2023-12-28T06:14:26;2.83;;;2.43;;
6376;SDS011;3221;48.858;10.128;2023-12-28T06:16:53;4.20;;;2.97;;
6376;SDS011;3221;48.858;10.128;2023-12-28T06:19:21;5.50;;;3.70;;
6376;SDS011;3221;48.858;10.128;2023-12-28T06:21:48;8.03;;;5.10;;
6376;SDS011;3221;48.858;10.128;2023-12-28T06:24:16;7.63;;;5.03;;
6376;SDS011;3221;48.858;10.128;2023-12-28T06:26:43;4.63;;;3.30;;
6376;SDS011;3221;48.858;10.128;2023-12-28T06:29:11;4.73;;;3.20;;
6376;SDS011;3221;48.858;10.128;2023-12-28T06:31:38;2.90;;;2.43;;
6376;SDS011;3221;48.858;10.128;2023-12-28T06:34:06;4.33;;;2.43;;
6376;SDS011;3221;48.858;10.128;2023-12-28T06:36:34;2.30;;;2.07;;
6376;SDS011;3221;48.858;10.128;2023-12-28T06:39:01;3.20;;;2.10;;
6376;SDS011;3221;48.858;10.128;2023-12-28T06:41:28;2.17;;;1.97;;
6376;SDS011;3221;48.858;10.128;2023-12-28T06:43:55;2.93;;;1.90;;
6376;SDS011;3221;48.858;10.128;2023-12-28T06:46:22;2.57;;;1.90;;
6376;SDS011;3221;48.858;10.128;2023-12-28T06:48:49;3.30;;;2.63;;
6376;SDS011;3221;48.858;10.128;2023-12-28T06:51:17;3.37;;;2.50;;
6376;SDS011;3221;48.858;10.128;2023-12-28T06:53:47;2.23;;;2.03;;
6376;SDS011;3221;48.858;10.128;2023-12-28T06:56:15;2.87;;;2.30;;
6376;SDS011;3221;48.858;10.128;2023-12-28T06:58:42;2.73;;;2.40;;
6376;SDS011;3221;48.858;10.128;2023-12-28T07:01:09;5.70;;;4.10;;
6376;SDS011;3221;48.858;10.128;2023-12-28T07:03:38;10.73;;;7.10;;
6376;SDS011;3221;48.858;10.128;2023-12-28T07:06:05;9.40;;;6.57;;
6376;SDS011;3221;48.858;10.128;2023-12-28T07:08:32;9.37;;;6.70;;
6376;SDS011;3221;48.858;10.128;2023-12-28T07:11:02;9.40;;;6.87;;
6376;SDS011;3221;48.858;10.128;2023-12-28T07:13:30;7.03;;;5.53;;
6376;SDS011;3221;48.858;10.128;2023-12-28T07:15:58;6.60;;;4.70;;
6376;SDS011;3221;48.858;10.128;2023-12-28T07:18:27;4.93;;;4.27;;
6376;SDS011;3221;48.858;10.128;2023-12-28T07:20:55;6.60;;;5.10;;
6376;SDS011;3221;48.858;10.128;2023-12-28T07:23:22;5.47;;;4.20;;
6376;SDS011;3221;48.858;10.128;2023-12-28T07:25:49;5.63;;;3.90;;
6376;SDS011;3221;48.858;10.128;2023-12-28T07:28:16;4.60;;;3.40;;
6376;SDS011;3221;48.858;10.128;2023-12-28T07:30:43;4.17;;;3.37;;
6376;SDS011;3221;48.858;10.128;2023-12-28T07:33:10;4.80;;;3.53;;
6376;SDS011;3221;48.858;10.128;2023-12-28T07:35:37;4.37;;;3.67;;
6376;SDS011;3221;48.858;10.128;2023-12-28T07:38:04;3.97;;;3.10;;
6376;SDS011;3221;48.858;10.128;2023-12-28T07:40:31;4.10;;;3.17;;
6376;SDS011;3221;48.858;10.128;2023-12-28T07:42:58;4.23;;;2.90;;
6376;SDS011;3221;48.858;10.128;2023-12-28T07:45:25;5.43;;;3.10;;
6376;SDS011;3221;48.858;10.128;2023-12-28T07:47:52;3.97;;;3.23;;
6376;SDS011;3221;48.858;10.128;2023-12-28T07:50:19;3.40;;;3.10;;
6376;SDS011;3221;48.858;10.128;2023-12-28T07:52:48;3.93;;;3.07;;
6376;SDS011;3221;48.858;10.128;2023-12-28T07:55:15;4.43;;;3.50;;
6376;SDS011;3221;48.858;10.128;2023-12-28T07:57:42;3.77;;;3.20;;
6376;SDS011;3221;48.858;10.128;2023-12-28T08:00:10;3.73;;;3.03;;
6376;SDS011;3221;48.858;10.128;2023-12-28T08:02:37;5.97;;;3.77;;
6376;SDS011;3221;48.858;10.128;2023-12-28T08:05:04;5.43;;;4.00;;
6376;SDS011;3221;48.858;10.128;2023-12-28T08:07:32;4.27;;;3.57;;
6376;SDS011;3221;48.858;10.128;2023-12-28T08:09:59;3.80;;;2.93;;
6376;SDS011;3221;48.858;10.128;2023-12-28T08:12:27;3.20;;;2.90;;
6376;SDS011;3221;48.858;10.128;2023-12-28T08:14:55;4.47;;;3.30;;
6376;SDS011;3221;48.858;10.128;2023-12-28T08:17:22;3.63;;;3.00;;
6376;SDS011;3221;48.858;10.128;2023-12-28T08:19:49;4.90;;;2.80;;
6376;SDS011;3221;48.858;10.128;2023-12-28T08:22:17;4.07;;;3.10;;
6376;SDS011;3221;48.858;10.128;2023-12-28T08:24:45;4.80;;;3.27;;
6376;SDS011;3221;48.858;10.128;2023-12-28T08:27:12;4.97;;;3.33;;
6376;SDS011;3221;48.858;10.128;2023-12-28T08:29:39;3.30;;;2.93;;
6376;SDS011;3221;48.858;10.128;2023-12-28T08:32:08;3.33;;;2.40;;
6376;SDS011;3221;48.858;10.128;2023-12-28T08:34:37;3.23;;;2.43;;
6376;SDS011;3221;48.858;10.128;2023-12-28T08:37:04;2.57;;;2.37;;
6376;SDS011;3221;48.858;10.128;2023-12-28T08:39:32;4.07;;;2.63;;
6376;SDS011;3221;48.858;10.128;2023-12-28T08:41:59;2.53;;;2.33;;
6376;SDS011;3221;48.858;10.128;2023-12-28T08:44:26;2.43;;;2.23;;
6376;SDS011;3221;48.858;10.128;2023-12-28T08:46:53;3.40;;;3.07;;
6376;SDS011;3221;48.858;10.128;2023-12-28T08:49:20;4.40;;;2.90;;
6376;SDS011;3221;48.858;10.128;2023-12-28T08:51:49;5.80;;;3.50;;
6376;SDS011;3221;48.858;10.128;2023-12-28T08:54:16;4.67;;;3.70;;
6376;SDS011;3221;48.858;10.128;2023-12-28T08:56:43;4.17;;;3.60;;
6376;SDS011;3221;48.858;10.128;2023-12-28T08:59:11;5.47;;;4.30;;
6376;SDS011;3221;48.858;10.128;2023-12-28T09:01:38;6.97;;;4.63;;
6376;SDS011;3221;48.858;10.128;2023-12-28T09:04:05;12.53;;;7.93;;
6376;SDS011;3221;48.858;10.128;2023-12-28T09:06:32;12.63;;;8.10;;
6376;SDS011;3221;48.858;10.128;2023-12-28T09:08:59;16.97;;;9.50;;
6376;SDS011;3221;48.858;10.128;2023-12-28T09:11:27;11.17;;;6.13;;
6376;SDS011;3221;48.858;10.128;2023-12-28T09:13:55;6.83;;;4.83;;
6376;SDS011;3221;48.858;10.128;2023-12-28T09:16:22;8.00;;;5.10;;
6376;SDS011;3221;48.858;10.128;2023-12-28T09:18:50;6.13;;;4.90;;
6376;SDS011;3221;48.858;10.128;2023-12-28T09:21:17;7.60;;;4.77;;
6376;SDS011;3221;48.858;10.128;2023-12-28T09:23:44;6.60;;;4.00;;
6376;SDS011;3221;48.858;10.128;2023-12-28T09:26:11;4.10;;;3.50;;
6376;SDS011;3221;48.858;10.128;2023-12-28T09:28:38;11.03;;;9.23;;
6376;SDS011;3221;48.858;10.128;2023-12-28T09:31:07;8.83;;;7.00;;
6376;SDS011;3221;48.858;10.128;2023-12-28T09:33:34;23.20;;;17.13;;
6376;SDS011;3221;48.858;10.128;2023-12-28T09:36:04;21.40;;;14.67;;
6376;SDS011;3221;48.858;10.128;2023-12-28T09:38:32;13.67;;;9.60;;
6376;SDS011;3221;48.858;10.128;2023-12-28T09:41:03;11.93;;;8.93;;
6376;SDS011;3221;48.858;10.128;2023-12-28T09:43:53;7.57;;;5.40;;
6376;SDS011;3221;48.858;10.128;2023-12-28T09:46:24;7.63;;;5.10;;
6376;SDS011;3221;48.858;10.128;2023-12-28T09:48:53;6.50;;;4.70;;
6376;SDS011;3221;48.858;10.128;2023-12-28T09:51:23;7.90;;;5.87;;
6376;SDS011;3221;48.858;10.128;2023-12-28T09:53:52;8.33;;;6.03;;
6376;SDS011;3221;48.858;10.128;2023-12-28T09:56:19;6.93;;;4.80;;
6376;SDS011;3221;48.858;10.128;2023-12-28T09:58:46;6.97;;;4.63;;
6376;SDS011;3221;48.858;10.128;2023-12-28T10:01:17;25.83;;;11.90;;
6376;SDS011;3221;48.858;10.128;2023-12-28T10:03:48;74.10;;;32.30;;
6376;SDS011;3221;48.858;10.128;2023-12-28T10:06:15;74.90;;;28.80;;
6376;SDS011;3221;48.858;10.128;2023-12-28T10:08:46;41.70;;;19.07;;
6376;SDS011;3221;48.858;10.128;2023-12-28T10:11:15;37.07;;;20.23;;
6376;SDS011;3221;48.858;10.128;2023-12-28T10:13:43;21.00;;;11.73;;
6376;SDS011;3221;48.858;10.128;2023-12-28T10:16:11;15.33;;;8.20;;
6376;SDS011;3221;48.858;10.128;2023-12-28T10:18:42;10.80;;;7.23;;
6376;SDS011;3221;48.858;10.128;2023-12-28T10:21:10;8.83;;;5.77;;
6376;SDS011;3221;48.858;10.128;2023-12-28T10:23:38;9.50;;;6.50;;
6376;SDS011;3221;48.858;10.128;2023-12-28T10:26:05;14.67;;;9.67;;
6376;SDS011;3221;48.858;10.128;2023-12-28T10:28:32;16.10;;;10.77;;
6376;SDS011;3221;48.858;10.128;2023-12-28T10:31:01;13.00;;;8.60;;
6376;SDS011;3221;48.858;10.128;2023-12-28T10:33:33;12.90;;;9.17;;
6376;SDS011;3221;48.858;10.128;2023-12-28T10:36:05;9.47;;;6.97;;
6376;SDS011;3221;48.858;10.128;2023-12-28T10:38:34;6.90;;;5.30;;
6376;SDS011;3221;48.858;10.128;2023-12-28T10:41:08;6.23;;;5.03;;
6376;SDS011;3221;48.858;10.128;2023-12-28T10:43:45;7.20;;;4.87;;
6376;SDS011;3221;48.858;10.128;2023-12-28T10:46:26;10.57;;;7.07;;
6376;SDS011;3221;48.858;10.128;2023-12-28T10:48:58;7.93;;;5.70;;
6376;SDS011;3221;48.858;10.128;2023-12-28T10:51:28;7.93;;;5.50;;
6376;SDS011;3221;48.858;10.128;2023-12-28T10:54:04;5.60;;;4.33;;
6376;SDS011;3221;48.858;10.128;2023-12-28T10:56:43;17.47;;;12.03;;
6376;SDS011;3221;48.858;10.128;2023-12-28T11:01:58;9.10;;;5.07;;
6376;SDS011;3221;48.858;10.128;2023-12-28T11:04:33;13.97;;;8.40;;
6376;SDS011;3221;48.858;10.128;2023-12-28T11:07:09;9.27;;;5.37;;
6376;SDS011;3221;48.858;10.128;2023-12-28T11:09:41;6.97;;;5.40;;
6376;SDS011;3221;48.858;10.128;2023-12-28T11:12:08;14.90;;;8.43;;
6376;SDS011;3221;48.858;10.128;2023-12-28T11:14:39;13.97;;;8.97;;
6376;SDS011;3221;48.858;10.128;2023-12-28T11:17:06;12.70;;;8.30;;
6376;SDS011;3221;48.858;10.128;2023-12-28T11:19:35;10.87;;;5.90;;
6376;SDS011;3221;48.858;10.128;2023-12-28T11:22:03;9.77;;;5.87;;
6376;SDS011;3221;48.858;10.128;2023-12-28T11:24:31;7.07;;;4.57;;
6376;SDS011;3221;48.858;10.128;2023-12-28T11:27:00;4.33;;;3.70;;
6376;SDS011;3221;48.858;10.128;2023-12-28T11:29:29;5.67;;;3.70;;
6376;SDS011;3221;48.858;10.128;2023-12-28T11:31:58;4.83;;;3.67;;
6376;SDS011;3221;48.858;10.128;2023-12-28T11:34:29;4.53;;;3.83;;
6376;SDS011;3221;48.858;10.128;2023-12-28T11:37:04;19.47;;;13.57;;
6376;SDS011;3221;48.858;10.128;2023-12-28T11:39:34;5.63;;;4.53;;
6376;SDS011;3221;48.858;10.128;2023-12-28T11:42:04;5.40;;;3.67;;
6376;SDS011;3221;48.858;10.128;2023-12-28T11:44:42;5.47;;;3.90;;
6376;SDS011;3221;48.858;10.128;2023-12-28T11:47:13;5.10;;;4.27;;
6376;SDS011;3221;48.858;10.128;2023-12-28T11:49:47;5.27;;;4.30;;
6376;SDS011;3221;48.858;10.128;2023-12-28T11:52:27;4.27;;;2.80;;
6376;SDS011;3221;48.858;10.128;2023-12-28T11:54:57;4.93;;;3.20;;
6376;SDS011;3221;48.858;10.128;2023-12-28T11:57:26;4.67;;;3.27;;
6376;SDS011;3221;48.858;10.128;2023-12-28T11:59:57;5.93;;;4.17;;
6376;SDS011;3221;48.858;10.128;2023-12-28T12:02:30;4.40;;;3.00;;
6376;SDS011;3221;48.858;10.128;2023-12-28T12:04:57;3.57;;;2.87;;
6376;SDS011;3221;48.858;10.128;2023-12-28T12:07:24;4.63;;;3.10;;
6376;SDS011;3221;48.858;10.128;2023-12-28T12:09:55;4.17;;;3.40;;
6376;SDS011;3221;48.858;10.128;2023-12-28T12:12:23;5.13;;;3.47;;
6376;SDS011;3221;48.858;10.128;2023-12-28T12:14:51;3.37;;;3.00;;
6376;SDS011;3221;48.858;10.128;2023-12-28T12:17:18;4.20;;;3.60;;
6376;SDS011;3221;48.858;10.128;2023-12-28T12:19:45;4.17;;;2.77;;
6376;SDS011;3221;48.858;10.128;2023-12-28T12:22:15;3.20;;;2.53;;
6376;SDS011;3221;48.858;10.128;2023-12-28T12:24:46;4.73;;;3.10;;
6376;SDS011;3221;48.858;10.128;2023-12-28T12:27:15;3.97;;;2.80;;
6376;SDS011;3221;48.858;10.128;2023-12-28T12:29:42;3.17;;;2.60;;
6376;SDS011;3221;48.858;10.128;2023-12-28T12:32:09;3.40;;;2.90;;
6376;SDS011;3221;48.858;10.128;2023-12-28T12:34:37;3.73;;;3.20;;
6376;SDS011;3221;48.858;10.128;2023-12-28T12:37:05;3.87;;;3.10;;
6376;SDS011;3221;48.858;10.128;2023-12-28T12:39:32;5.50;;;3.60;;
6376;SDS011;3221;48.858;10.128;2023-12-28T12:42:00;4.50;;;3.13;;
6376;SDS011;3221;48.858;10.128;2023-12-28T12:44:27;3.23;;;2.80;;
6376;SDS011;3221;48.858;10.128;2023-12-28T12:46:57;3.03;;;2.53;;
6376;SDS011;3221;48.858;10.128;2023-12-28T12:49:25;3.10;;;2.80;;
6376;SDS011;3221;48.858;10.128;2023-12-28T12:51:53;3.63;;;2.67;;
6376;SDS011;3221;48.858;10.128;2023-12-28T12:54:21;3.03;;;2.73;;
6376;SDS011;3221;48.858;10.128;2023-12-28T12:56:49;6.93;;;4.87;;
6376;SDS011;3221;48.858;10.128;2023-12-28T12:59:17;4.20;;;3.40;;
6376;SDS011;3221;48.858;10.128;2023-12-28T13:01:44;4.27;;;3.50;;
6376;SDS011;3221;48.858;10.128;2023-12-28T13:04:16;5.50;;;3.70;;
6376;SDS011;3221;48.858;10.128;2023-12-28T13:06:43;3.23;;;2.80;;
6376;SDS011;3221;48.858;10.128;2023-12-28T13:09:10;2.97;;;2.60;;
6376;SDS011;3221;48.858;10.128;2023-12-28T13:11:38;3.67;;;2.80;;
6376;SDS011;3221;48.858;10.128;2023-12-28T13:14:05;3.63;;;2.80;;
6376;SDS011;3221;48.858;10.128;2023-12-28T13:16:32;3.50;;;3.17;;
6376;SDS011;3221;48.858;10.128;2023-12-28T13:18:59;4.47;;;2.50;;
6376;SDS011;3221;48.858;10.128;2023-12-28T13:21:26;3.10;;;2.80;;
6376;SDS011;3221;48.858;10.128;2023-12-28T13:23:53;5.13;;;3.00;;
6376;SDS011;3221;48.858;10.128;2023-12-28T13:26:20;3.80;;;2.70;;
6376;SDS011;3221;48.858;10.128;2023-12-28T13:28:47;4.33;;;3.07;;
6376;SDS011;3221;48.858;10.128;2023-12-28T13:31:14;3.63;;;2.83;;
6376;SDS011;3221;48.858;10.128;2023-12-28T13:33:41;4.47;;;3.17;;
6376;SDS011;3221;48.858;10.128;2023-12-28T13:36:08;4.03;;;3.30;;
6376;SDS011;3221;48.858;10.128;2023-12-28T13:38:35;3.63;;;3.10;;
6376;SDS011;3221;48.858;10.128;2023-12-28T13:41:02;3.57;;;3.10;;
6376;SDS011;3221;48.858;10.128;2023-12-28T13:43:29;3.33;;;2.87;;
6376;SDS011;3221;48.858;10.128;2023-12-28T13:45:56;4.73;;;3.40;;
6376;SDS011;3221;48.858;10.128;2023-12-28T13:48:23;4.17;;;3.50;;
6376;SDS011;3221;48.858;10.128;2023-12-28T13:50:50;4.30;;;3.47;;
6376;SDS011;3221;48.858;10.128;2023-12-28T13:53:17;4.30;;;3.33;;
6376;SDS011;3221;48.858;10.128;2023-12-28T13:55:44;4.17;;;3.30;;
6376;SDS011;3221;48.858;10.128;2023-12-28T13:58:12;6.63;;;3.27;;
6376;SDS011;3221;48.858;10.128;2023-12-28T14:00:39;3.53;;;3.10;;
6376;SDS011;3221;48.858;10.128;2023-12-28T14:03:06;4.67;;;3.17;;
6376;SDS011;3221;48.858;10.128;2023-12-28T14:05:33;5.47;;;3.37;;
6376;SDS011;3221;48.858;10.128;2023-12-28T14:08:02;4.30;;;3.83;;
6376;SDS011;3221;48.858;10.128;2023-12-28T14:10:29;4.07;;;3.00;;
6376;SDS011;3221;48.858;10.128;2023-12-28T14:12:56;3.77;;;3.13;;
6376;SDS011;3221;48.858;10.128;2023-12-28T14:15:24;4.07;;;3.27;;
6376;SDS011;3221;48.858;10.128;2023-12-28T14:17:51;4.00;;;3.60;;
6376;SDS011;3221;48.858;10.128;2023-12-28T14:20:18;4.60;;;3.70;;
6376;SDS011;3221;48.858;10.128;2023-12-28T14:22:45;4.33;;;3.40;;
6376;SDS011;3221;48.858;10.128;2023-12-28T14:25:12;5.40;;;4.00;;
6376;SDS011;3221;48.858;10.128;2023-12-28T14:27:40;4.67;;;3.90;;
6376;SDS011;3221;48.858;10.128;2023-12-28T14:30:07;5.27;;;3.97;;
6376;SDS011;3221;48.858;10.128;2023-12-28T14:32:37;4.20;;;3.50;;
6376;SDS011;3221;48.858;10.128;2023-12-28T14:35:04;4.43;;;3.30;;
6376;SDS011;3221;48.858;10.128;2023-12-28T14:37:32;4.77;;;3.30;;
6376;SDS011;3221;48.858;10.128;2023-12-28T14:39:59;4.50;;;3.43;;
6376;SDS011;3221;48.858;10.128;2023-12-28T14:42:32;3.60;;;3.10;;
6376;SDS011;3221;48.858;10.128;2023-12-28T14:45:00;4.13;;;3.00;;
6376;SDS011;3221;48.858;10.128;2023-12-28T14:47:30;3.40;;;2.80;;
6376;SDS011;3221;48.858;10.128;2023-12-28T14:49:57;3.80;;;2.97;;
6376;SDS011;3221;48.858;10.128;2023-12-28T14:52:24;2.80;;;2.50;;
6376;SDS011;3221;48.858;10.128;2023-12-28T14:54:51;4.53;;;3.60;;
6376;SDS011;3221;48.858;10.128;2023-12-28T14:57:21;3.80;;;3.30;;
6376;SDS011;3221;48.858;10.128;2023-12-28T14:59:48;6.73;;;5.40;;
6376;SDS011;3221;48.858;10.128;2023-12-28T15:02:15;4.87;;;3.87;;
6376;SDS011;3221;48.858;10.128;2023-12-28T15:04:42;5.20;;;4.53;;
6376;SDS011;3221;48.858;10.128;2023-12-28T15:07:09;4.97;;;4.20;;
6376;SDS011;3221;48.858;10.128;2023-12-28T15:09:37;5.53;;;4.17;;
6376;SDS011;3221;48.858;10.128;2023-12-28T15:12:04;4.63;;;3.63;;
6376;SDS011;3221;48.858;10.128;2023-12-28T15:14:31;4.30;;;3.03;;
6376;SDS011;3221;48.858;10.128;2023-12-28T15:16:59;4.50;;;3.43;;